Time;durP1;ratioP1;P1;durP2;ratioP2;P2;SDS_P1;SDS_P2;PMS_P1;PMS_P2;Temp;Humidity;BMP_temperature;BMP_pressure;BME280_temperature;BME280_humidity;BME280_pressure;Samples;Min_cycle;Max_cycle;Signal;HPM_P1;HPM_P2
2021/12/15 00:01:38;;;;;;;19.70;12.60;;;12.40;84.00;;;;;;10453672;28;20613;-91
2021/12/15 00:06:42;;;;;;;18.37;12.77;;;12.50;84.00;;;;;;10434869;28;20277;-91
2021/12/15 00:11:45;;;;;;;15.80;10.93;;;12.40;84.00;;;;;;10434664;28;20280;-91
2021/12/15 00:16:49;;;;;;;16.63;11.87;;;12.60;83.60;;;;;;10420866;28;20231;-92
2021/12/15 00:21:53;;;;;;;20.17;13.27;;;12.80;83.10;;;;;;10412914;28;20271;-91
2021/12/15 00:26:56;;;;;;;15.10;11.33;;;12.70;83.10;;;;;;10423074;28;20674;-91
2021/12/15 00:32:03;;;;;;;19.20;11.93;;;12.70;83.00;;;;;;10393744;28;20311;-92
2021/12/15 00:37:07;;;;;;;16.47;10.57;;;12.70;83.30;;;;;;10426958;28;20295;-92
2021/12/15 00:42:10;;;;;;;16.47;11.53;;;12.60;83.50;;;;;;10400529;28;20208;-90
2021/12/15 00:47:13;;;;;;;17.93;11.37;;;12.50;83.80;;;;;;10391821;28;20204;-91
2021/12/15 00:52:15;;;;;;;19.53;13.07;;;12.20;85.20;;;;;;10432281;28;20305;-91
2021/12/15 00:57:19;;;;;;;14.97;10.37;;;12.30;85.20;;;;;;10449274;28;20236;-91
2021/12/15 01:02:21;;;;;;;16.53;11.20;;;12.20;85.20;;;;;;10448994;28;20240;-91
2021/12/15 01:07:25;;;;;;;16.10;10.43;;;12.50;84.50;;;;;;10450101;28;20285;-92
2021/12/15 01:14:30;;;;;;;12.53;10.00;;;12.60;83.90;;;;;;10398705;28;20252;-92
2021/12/15 01:23:33;;;;;;;14.37;10.03;;;12.60;84.30;;;;;;10423563;28;20631;-91
2021/12/15 01:28:35;;;;;;;17.00;9.73;;;12.70;83.50;;;;;;10431804;28;20245;-92
2021/12/15 01:33:39;;;;;;;14.63;10.37;;;12.70;83.40;;;;;;10431396;28;20360;-92
2021/12/15 01:38:45;;;;;;;15.70;9.87;;;12.40;84.50;;;;;;10426660;28;20228;-90
2021/12/15 01:49:18;;;;;;;16.57;10.47;;;12.40;84.60;;;;;;10430595;28;20297;-91
2021/12/15 01:54:22;;;;;;;17.13;10.83;;;12.30;85.00;;;;;;10432221;28;20260;-91
2021/12/15 01:59:27;;;;;;;14.30;9.40;;;12.50;84.20;;;;;;10432146;28;20213;-91
2021/12/15 02:04:30;;;;;;;20.20;10.90;;;12.60;83.60;;;;;;10434520;28;20205;-92
2021/12/15 02:14:54;;;;;;;13.40;10.20;;;12.30;84.70;;;;;;10407969;28;20281;-91
2021/12/15 02:19:56;;;;;;;16.27;9.17;;;12.40;84.60;;;;;;10409929;28;20200;-90
2021/12/15 02:25:02;;;;;;;14.63;10.20;;;12.30;84.70;;;;;;10411751;28;20267;-91
2021/12/15 02:30:21;;;;;;;12.53;8.67;;;12.70;83.60;;;;;;10451984;28;20618;-90
2021/12/15 02:40:46;;;;;;;13.83;10.40;;;12.70;83.40;;;;;;10437552;28;20279;-90
2021/12/15 02:45:48;;;;;;;12.30;10.03;;;12.60;83.90;;;;;;10436584;28;20268;-90
2021/12/15 02:50:51;;;;;;;14.90;10.33;;;12.70;83.50;;;;;;10455744;28;20264;-91
2021/12/15 02:55:53;;;;;;;18.00;10.40;;;12.80;83.30;;;;;;10420762;28;20246;-90
2021/12/15 03:01:02;;;;;;;13.53;9.70;;;12.80;83.20;;;;;;10415516;28;20623;-90
2021/12/15 03:06:14;;;;;;;16.47;10.37;;;12.80;83.20;;;;;;10396118;28;20269;-91
2021/12/15 03:16:40;;;;;;;15.80;10.67;;;12.70;83.50;;;;;;10396668;28;20253;-91
2021/12/15 03:21:43;;;;;;;11.27;8.47;;;12.70;83.20;;;;;;10405767;28;20205;-90
2021/12/15 03:27:03;;;;;;;14.93;10.43;;;12.90;82.90;;;;;;10436061;28;20234;-90
2021/12/15 03:37:31;;;;;;;15.77;9.40;;;12.80;83.10;;;;;;10453604;28;20366;-90
2021/12/15 03:42:40;;;;;;;18.40;11.47;;;12.80;83.10;;;;;;10434693;28;20210;-90
2021/12/15 03:47:46;;;;;;;13.43;9.00;;;12.80;83.10;;;;;;10418176;28;20771;-91
2021/12/15 03:52:49;;;;;;;11.17;8.20;;;12.80;83.30;;;;;;10432304;28;20261;-90
2021/12/15 03:57:52;;;;;;;14.03;8.87;;;12.80;83.10;;;;;;10413111;28;20695;-90
2021/12/15 04:02:56;;;;;;;13.30;8.67;;;12.80;82.80;;;;;;10441767;28;20237;-91
2021/12/15 04:07:59;;;;;;;13.47;9.17;;;12.90;83.00;;;;;;10435251;28;20335;-91
2021/12/15 04:13:02;;;;;;;13.17;8.60;;;12.90;82.80;;;;;;10432340;28;20239;-91
2021/12/15 04:18:04;;;;;;;14.53;8.37;;;12.90;82.70;;;;;;10418440;28;20281;-90
2021/12/15 04:23:10;;;;;;;12.30;8.07;;;12.70;83.20;;;;;;10429863;28;20227;-90
2021/12/15 04:28:20;;;;;;;12.30;8.37;;;12.80;83.20;;;;;;10426660;28;20238;-91
2021/12/15 04:33:29;;;;;;;19.80;11.10;;;12.70;83.70;;;;;;10406944;28;20758;-91
2021/12/15 04:38:33;;;;;;;14.33;9.40;;;12.40;84.40;;;;;;10410848;28;20212;-91
2021/12/15 04:43:40;;;;;;;11.87;7.40;;;12.20;85.40;;;;;;10428776;28;20653;-90
2021/12/15 04:48:42;;;;;;;11.87;7.70;;;12.00;86.40;;;;;;10433866;28;20615;-91
2021/12/15 04:53:46;;;;;;;11.07;8.33;;;12.30;85.70;;;;;;10432727;28;20300;-90
2021/12/15 04:58:49;;;;;;;14.10;8.83;;;12.20;85.40;;;;;;10432471;28;20256;-90
2021/12/15 05:03:52;;;;;;;13.77;8.43;;;12.20;85.80;;;;;;10414480;28;20250;-89
2021/12/15 05:08:56;;;;;;;13.60;7.80;;;12.00;86.30;;;;;;10433464;28;20239;-90
2021/12/15 05:13:59;;;;;;;12.37;7.80;;;11.90;86.80;;;;;;10450645;28;20252;-90
2021/12/15 05:19:01;;;;;;;39.30;21.50;;;11.80;87.10;;;;;;10410910;28;20847;-90
2021/12/15 05:24:13;;;;;;;19.40;11.70;;;11.60;88.00;;;;;;10392634;28;20229;-91
2021/12/15 05:29:16;;;;;;;28.20;14.70;;;11.50;88.60;;;;;;10450896;28;20195;-91
2021/12/15 05:34:20;;;;;;;40.17;20.40;;;11.10;90.30;;;;;;10449958;28;20698;-91
2021/12/15 05:39:23;;;;;;;45.67;22.00;;;11.30;90.30;;;;;;10450398;28;20248;-90
2021/12/15 05:44:27;;;;;;;28.23;14.03;;;11.40;90.20;;;;;;10444932;28;20199;-91
2021/12/15 05:49:29;;;;;;;35.97;15.97;;;11.10;90.40;;;;;;10420474;28;20604;-88
2021/12/15 05:54:32;;;;;;;51.37;21.07;;;10.50;91.90;;;;;;10447997;28;20224;-87
2021/12/15 05:59:36;;;;;;;21.80;12.87;;;11.30;90.30;;;;;;10396296;28;20228;-91
2021/12/15 06:04:38;;;;;;;51.13;21.87;;;11.80;88.40;;;;;;10418751;28;20243;-90
2021/12/15 06:09:45;;;;;;;66.00;28.00;;;11.30;90.60;;;;;;10383165;28;20575;-91
2021/12/15 06:14:47;;;;;;;74.33;32.03;;;9.70;94.90;;;;;;10416351;28;20251;-90
2021/12/15 06:19:50;;;;;;;46.83;21.23;;;8.70;99.90;;;;;;10422158;28;20282;-91
2021/12/15 06:24:56;;;;;;;56.17;23.80;;;8.90;99.90;;;;;;10406834;28;20231;-91
2021/12/15 06:29:58;;;;;;;53.10;23.57;;;9.30;99.90;;;;;;10424954;28;20249;-90
2021/12/15 06:35:01;;;;;;;14.97;9.47;;;8.80;99.90;;;;;;10398534;28;20747;-90
2021/12/15 06:40:08;;;;;;;26.83;12.73;;;9.60;99.90;;;;;;10415125;28;20227;-90
2021/12/15 06:45:16;;;;;;;48.27;18.87;;;10.40;97.20;;;;;;10416114;28;20209;-91
2021/12/15 07:01:02;;;;;;;55.10;23.77;;;10.50;95.50;;;;;;10437609;28;20282;-89
2021/12/15 07:06:05;;;;;;;54.63;26.00;;;10.60;95.70;;;;;;10418243;28;20231;-89
2021/12/15 07:11:08;;;;;;;25.30;13.90;;;10.50;96.30;;;;;;10427611;28;20233;-90
2021/12/15 07:16:10;;;;;;;51.50;22.27;;;9.90;98.10;;;;;;10407941;28;20256;-89
2021/12/15 07:21:20;;;;;;;42.83;21.50;;;10.10;97.70;;;;;;10434040;28;21069;-89
2021/12/15 07:26:23;;;;;;;35.50;17.53;;;9.10;99.90;;;;;;10431488;28;20281;-90
2021/12/15 07:31:25;;;;;;;20.37;11.20;;;9.80;99.70;;;;;;10433441;28;20225;-89
2021/12/15 07:36:28;;;;;;;74.43;36.77;;;10.00;98.60;;;;;;10414928;28;20273;-89
2021/12/15 07:41:35;;;;;;;41.77;21.03;;;9.50;99.90;;;;;;10428969;28;20285;-89
2021/12/15 07:46:37;;;;;;;17.60;11.00;;;9.60;99.90;;;;;;10409689;28;20248;-89
2021/12/15 07:51:44;;;;;;;12.47;7.93;;;10.30;97.60;;;;;;10428589;28;20772;-88
2021/12/15 07:56:47;;;;;;;11.77;8.40;;;11.30;94.40;;;;;;10433785;28;20248;-88
2021/12/15 08:01:51;;;;;;;12.60;9.03;;;11.40;93.20;;;;;;10452317;28;20231;-89
2021/12/15 08:06:54;;;;;;;14.23;9.47;;;11.90;91.80;;;;;;10412709;28;20248;-89
2021/12/15 08:11:56;;;;;;;14.73;9.17;;;12.00;91.30;;;;;;10410848;28;20243;-89
2021/12/15 08:17:04;;;;;;;13.63;8.33;;;11.80;91.50;;;;;;10392838;28;20335;-89
2021/12/15 08:22:07;;;;;;;38.13;19.57;;;12.30;90.30;;;;;;10410669;28;20278;-88
2021/12/15 08:27:09;;;;;;;12.33;8.37;;;12.40;90.00;;;;;;10410137;28;20265;-89
2021/12/15 08:32:12;;;;;;;37.07;16.57;;;12.50;89.30;;;;;;10443557;28;20263;-91
2021/12/15 08:37:15;;;;;;;52.77;25.87;;;12.20;91.00;;;;;;10434033;28;20716;-89
2021/12/15 08:42:18;;;;;;;54.60;26.83;;;11.60;92.70;;;;;;10425627;28;20248;-90
2021/12/15 08:47:21;;;;;;;39.07;19.57;;;11.70;92.70;;;;;;10433691;28;20329;-90
2021/12/15 08:52:23;;;;;;;35.40;18.87;;;12.00;93.40;;;;;;10398508;28;20245;-89
2021/12/15 08:57:26;;;;;;;41.47;19.50;;;12.20;92.70;;;;;;10391935;28;20228;-90
2021/12/15 09:02:28;;;;;;;40.97;18.20;;;12.50;92.00;;;;;;10413229;28;20244;-90
2021/12/15 09:07:31;;;;;;;36.40;19.00;;;12.80;91.10;;;;;;10411310;28;20210;-90
2021/12/15 09:12:35;;;;;;;31.40;17.43;;;13.20;90.70;;;;;;10432277;28;20221;-90
2021/12/15 09:17:38;;;;;;;33.50;17.30;;;13.10;90.00;;;;;;10443572;28;20308;-89
2021/12/15 09:22:41;;;;;;;31.80;16.27;;;13.10;89.60;;;;;;10432357;28;20237;-88
2021/12/15 09:27:45;;;;;;;29.10;15.27;;;13.10;89.00;;;;;;10425648;28;20623;-90
2021/12/15 09:32:48;;;;;;;32.77;15.80;;;13.10;88.70;;;;;;10416113;28;20216;-90
2021/12/15 09:37:51;;;;;;;30.17;15.37;;;;;;;;;;10406947;28;20255;-89
2021/12/15 09:42:54;;;;;;;32.00;15.50;;;13.30;87.20;;;;;;10431279;28;20653;-90
2021/12/15 10:04:07;;;;;;;24.70;13.73;;;13.20;87.30;;;;;;10436692;28;20288;-89
2021/12/15 10:19:55;;;;;;;27.63;13.97;;;13.30;86.50;;;;;;10404142;28;20240;-89
2021/12/15 10:25:08;;;;;;;25.50;13.87;;;13.40;86.30;;;;;;10395114;28;20299;-90
2021/12/15 10:30:23;;;;;;;21.13;13.03;;;13.40;86.10;;;;;;10396877;28;20822;-90
2021/12/15 10:35:28;;;;;;;22.67;13.73;;;13.50;85.90;;;;;;10415604;28;20249;-89
2021/12/15 10:40:31;;;;;;;22.50;13.67;;;13.40;85.70;;;;;;10392876;28;20231;-90
2021/12/15 10:45:37;;;;;;;26.67;14.47;;;13.40;85.80;;;;;;10422383;28;20622;-90
2021/12/15 10:50:40;;;;;;;22.77;13.53;;;13.40;85.70;;;;;;10391883;28;20852;-90
2021/12/15 10:55:50;;;;;;;22.77;14.03;;;13.50;85.40;;;;;;10399728;28;20255;-90
2021/12/15 11:00:53;;;;;;;21.63;12.23;;;13.50;85.20;;;;;;10397694;28;20247;-88
2021/12/15 11:05:55;;;;;;;24.47;13.93;;;13.40;85.40;;;;;;10417559;28;20247;-88
2021/12/15 11:10:58;;;;;;;26.07;15.20;;;13.50;85.30;;;;;;10400021;28;20301;-88
2021/12/15 11:16:04;;;;;;;22.87;14.00;;;13.40;85.50;;;;;;10410298;28;20650;-88
2021/12/15 11:21:08;;;;;;;23.93;13.20;;;13.40;85.40;;;;;;10412936;28;20244;-89
2021/12/15 11:26:15;;;;;;;19.33;13.23;;;13.50;85.30;;;;;;10435299;28;20308;-89
2021/12/15 11:31:28;;;;;;;23.07;12.53;;;13.50;85.20;;;;;;10427937;28;20609;-89
2021/12/15 11:36:42;;;;;;;21.43;13.30;;;13.50;85.20;;;;;;10429319;28;20314;-89
2021/12/15 11:41:53;;;;;;;18.53;11.70;;;13.40;85.30;;;;;;10429275;28;20683;-89
2021/12/15 11:47:02;;;;;;;21.33;13.83;;;13.40;85.50;;;;;;10394547;28;20296;-89
2021/12/15 11:52:08;;;;;;;24.17;13.00;;;13.40;85.40;;;;;;10406339;28;20222;-90
2021/12/15 11:57:29;;;;;;;20.37;12.20;;;13.30;85.40;;;;;;10402738;28;20254;-90
2021/12/15 12:02:36;;;;;;;17.53;11.47;;;13.40;85.60;;;;;;10394679;28;20287;-90
2021/12/15 12:07:45;;;;;;;20.47;12.43;;;13.30;85.50;;;;;;10408830;28;20236;-91
2021/12/15 12:12:53;;;;;;;18.70;12.13;;;13.30;85.50;;;;;;10427696;28;20747;-91
2021/12/15 12:18:04;;;;;;;18.50;11.50;;;13.40;85.30;;;;;;10428966;28;20256;-91
2021/12/15 12:23:09;;;;;;;18.07;11.63;;;13.40;85.00;;;;;;10405366;28;20215;-89
2021/12/15 12:28:15;;;;;;;20.10;12.20;;;13.40;85.10;;;;;;10425290;28;20317;-89
2021/12/15 12:33:20;;;;;;;15.17;10.97;;;13.40;85.20;;;;;;10412516;28;20270;-90
2021/12/15 12:38:26;;;;;;;32.90;18.90;;;13.40;85.10;;;;;;10426157;28;20241;-90
2021/12/15 12:43:32;;;;;;;20.83;12.47;;;13.20;87.10;;;;;;10431473;28;20641;-89
2021/12/15 12:59:28;;;;;;;16.50;10.27;;;13.30;85.50;;;;;;10430478;28;20690;-89
2021/12/15 13:04:42;;;;;;;17.57;11.73;;;13.30;85.60;;;;;;10387946;28;20755;-88
2021/12/15 13:09:51;;;;;;;17.13;10.87;;;13.30;85.70;;;;;;10407804;28;20643;-89
2021/12/15 13:14:56;;;;;;;16.50;10.87;;;13.30;85.60;;;;;;10411429;28;20384;-89
2021/12/15 13:20:00;;;;;;;17.90;10.50;;;13.20;85.80;;;;;;10406971;28;20229;-89
2021/12/15 13:30:46;;;;;;;15.57;11.27;;;13.30;85.60;;;;;;10415928;28;20661;-89
2021/12/15 13:36:02;;;;;;;13.53;9.70;;;13.30;85.50;;;;;;10418062;28;20713;-89
2021/12/15 13:41:28;;;;;;;15.87;10.10;;;13.40;85.20;;;;;;10406709;28;20270;-88
2021/12/15 13:46:41;;;;;;;13.77;9.93;;;13.40;85.10;;;;;;10405455;28;20690;-89
2021/12/15 13:51:51;;;;;;;15.00;10.77;;;13.40;85.20;;;;;;10440137;28;20291;-88
2021/12/15 13:56:55;;;;;;;13.87;10.00;;;13.10;86.00;;;;;;10396361;28;20297;-88
2021/12/15 14:02:30;;;;;;;14.00;10.47;;;13.20;85.60;;;;;;10400065;28;20238;-89
2021/12/15 14:07:44;;;;;;;14.40;10.07;;;13.30;85.60;;;;;;10409506;28;20255;-89
2021/12/15 14:12:47;;;;;;;13.90;9.27;;;13.30;85.60;;;;;;10393781;28;20700;-89
2021/12/15 14:17:58;;;;;;;13.90;8.93;;;13.30;85.50;;;;;;10426249;28;20935;-88
2021/12/15 14:23:07;;;;;;;15.33;9.20;;;13.20;86.00;;;;;;10387533;28;20679;-88
2021/12/15 14:28:19;;;;;;;13.40;10.30;;;13.20;85.70;;;;;;10397550;28;20260;-89
2021/12/15 14:33:29;;;;;;;15.73;10.10;;;13.20;85.70;;;;;;10388833;28;20960;-90
2021/12/15 14:38:56;;;;;;;14.37;9.67;;;13.20;85.70;;;;;;10397465;28;20249;-89
2021/12/15 14:44:27;;;;;;;13.07;9.17;;;13.20;85.90;;;;;;10413006;28;20813;-87
2021/12/15 14:49:39;;;;;;;15.33;9.43;;;13.20;85.80;;;;;;10442627;28;20233;-87
2021/12/15 14:54:43;;;;;;;13.87;9.37;;;13.30;85.70;;;;;;10421662;28;20275;-88
2021/12/15 14:59:49;;;;;;;18.37;9.90;;;13.20;85.60;;;;;;10415159;28;20253;-88
2021/12/15 15:04:53;;;;;;;14.30;10.00;;;13.30;85.80;;;;;;10418495;28;20236;-88
2021/12/15 15:09:57;;;;;;;14.87;9.30;;;13.30;86.00;;;;;;10425245;28;20241;-89
2021/12/15 15:15:26;;;;;;;13.53;9.13;;;13.40;85.40;;;;;;10426614;28;20299;-89
2021/12/15 15:20:32;;;;;;;13.83;10.20;;;13.40;85.20;;;;;;10433827;28;20234;-89
2021/12/15 15:25:38;;;;;;;12.17;9.13;;;13.40;85.30;;;;;;10448868;28;20765;-89
2021/12/15 15:30:43;;;;;;;13.73;9.67;;;13.40;85.20;;;;;;10420082;28;20238;-89
2021/12/15 15:36:09;;;;;;;13.57;9.53;;;13.40;85.30;;;;;;10422724;28;20638;-88
2021/12/15 15:41:15;;;;;;;12.20;8.87;;;13.40;85.40;;;;;;10395706;28;20225;-89
2021/12/15 15:46:23;;;;;;;16.10;10.67;;;13.30;85.80;;;;;;10402842;28;20209;-89
2021/12/15 15:51:36;;;;;;;13.80;9.83;;;13.50;85.20;;;;;;10450332;28;20749;-89
2021/12/15 15:56:41;;;;;;;14.97;10.03;;;13.50;85.00;;;;;;10440601;28;20310;-89
2021/12/15 16:01:49;;;;;;;43.30;20.40;;;13.50;85.30;;;;;;10435067;28;20259;-88
2021/12/15 16:06:52;;;;;;;13.40;9.73;;;12.80;88.20;;;;;;10427667;28;20232;-89
2021/12/15 16:11:57;;;;;;;13.43;9.93;;;13.40;86.30;;;;;;10424090;28;20665;-90
2021/12/15 16:17:13;;;;;;;15.33;9.70;;;13.40;85.90;;;;;;10433066;28;20803;-90
2021/12/15 16:27:46;;;;;;;18.00;10.57;;;13.60;85.30;;;;;;10430871;28;20701;-89
2021/12/15 16:32:49;;;;;;;17.47;10.43;;;13.50;85.60;;;;;;10410214;28;20686;-90
2021/12/15 16:37:52;;;;;;;17.63;11.43;;;13.40;85.70;;;;;;10429500;28;20792;-89
2021/12/15 16:43:10;;;;;;;20.57;11.80;;;13.40;85.70;;;;;;10409639;28;20225;-90
2021/12/15 16:48:21;;;;;;;17.33;10.37;;;13.30;86.00;;;;;;10432743;28;20293;-89
2021/12/15 16:53:37;;;;;;;18.57;11.60;;;13.30;86.40;;;;;;10438344;28;20282;-90
2021/12/15 16:58:40;;;;;;;18.93;11.17;;;13.20;86.50;;;;;;10413350;28;20307;-89
2021/12/15 17:03:43;;;;;;;20.40;11.30;;;13.30;86.40;;;;;;10403503;28;20234;-90
2021/12/15 17:08:45;;;;;;;15.20;8.70;;;13.30;86.30;;;;;;10424654;28;20756;-90
2021/12/15 17:13:51;;;;;;;17.63;10.37;;;13.50;85.80;;;;;;10448224;28;20732;-90
2021/12/15 17:18:57;;;;;;;17.43;10.77;;;13.40;85.90;;;;;;10440121;28;20280;-90
2021/12/15 17:24:04;;;;;;;15.40;10.40;;;13.50;85.90;;;;;;10409527;28;20270;-89
2021/12/15 17:29:16;;;;;;;19.30;10.80;;;13.50;85.60;;;;;;10443298;28;20742;-89
2021/12/15 17:34:40;;;;;;;17.03;10.43;;;13.50;85.60;;;;;;10431614;28;20634;-90
2021/12/15 17:39:49;;;;;;;17.00;10.43;;;13.50;85.60;;;;;;10412377;28;20245;-90
2021/12/15 17:44:58;;;;;;;19.23;11.10;;;13.60;85.40;;;;;;10429614;28;20230;-90
2021/12/15 17:50:02;;;;;;;14.67;9.73;;;13.50;85.50;;;;;;10419992;28;20220;-90
2021/12/15 17:55:31;;;;;;;17.90;10.90;;;13.60;85.50;;;;;;10435303;28;20263;-90
2021/12/15 18:00:47;;;;;;;15.73;10.63;;;13.70;85.30;;;;;;10415794;28;20237;-93
2021/12/15 18:05:51;;;;;;;35.67;20.80;;;13.60;85.50;;;;;;10423442;28;20203;-92
2021/12/15 18:11:05;;;;;;;31.73;18.23;;;9.90;99.90;;;;;;10424705;28;20268;-92
2021/12/15 18:16:09;;;;;;;28.87;17.20;;;12.20;99.30;;;;;;10419032;28;20243;-91
2021/12/15 18:21:15;;;;;;;30.93;17.33;;;12.70;96.00;;;;;;10427151;28;20252;-91
2021/12/15 18:26:19;;;;;;;23.77;13.73;;;13.00;94.40;;;;;;10401661;28;20693;-90
2021/12/15 18:31:23;;;;;;;26.87;13.77;;;13.00;95.90;;;;;;10399119;28;20274;-90
2021/12/15 18:36:25;;;;;;;25.30;14.23;;;13.30;94.40;;;;;;10459909;28;20285;-90
2021/12/15 18:41:30;;;;;;;24.10;13.90;;;13.30;93.90;;;;;;10448316;28;20210;-91
2021/12/15 18:46:35;;;;;;;22.43;13.90;;;13.30;93.60;;;;;;10451870;28;20266;-92
2021/12/15 18:51:39;;;;;;;21.97;12.20;;;13.30;93.30;;;;;;10408893;28;20838;-91
2021/12/15 18:56:45;;;;;;;19.20;11.87;;;13.40;92.80;;;;;;10417171;28;20672;-91
2021/12/15 19:01:51;;;;;;;26.23;14.60;;;13.40;92.40;;;;;;10431122;28;20788;-91
2021/12/15 19:06:54;;;;;;;16.30;11.30;;;13.40;92.10;;;;;;10431442;28;20235;-90
2021/12/15 19:11:57;;;;;;;19.13;11.87;;;13.50;91.70;;;;;;10436437;28;20780;-91
2021/12/15 19:17:00;;;;;;;17.67;10.13;;;13.50;91.50;;;;;;10421812;28;20261;-91
2021/12/15 19:22:07;;;;;;;17.10;11.57;;;13.60;91.30;;;;;;10442699;28;20228;-93
2021/12/15 19:27:14;;;;;;;18.30;11.07;;;13.50;91.20;;;;;;10408381;28;20290;-92
2021/12/15 19:32:17;;;;;;;17.07;11.33;;;13.50;91.10;;;;;;10456522;28;20192;-92
2021/12/15 19:37:20;;;;;;;17.03;10.83;;;13.50;91.00;;;;;;10439294;28;20255;-89
2021/12/15 19:42:22;;;;;;;16.17;10.63;;;13.40;91.10;;;;;;10446032;28;20738;-92
2021/12/15 19:47:25;;;;;;;15.60;10.20;;;13.50;91.10;;;;;;10443168;28;20232;-91
2021/12/15 19:52:28;;;;;;;19.03;11.47;;;13.40;91.00;;;;;;10443223;28;20470;-90
2021/12/15 19:57:30;;;;;;;16.87;10.53;;;13.30;91.10;;;;;;10438514;28;20275;-90
2021/12/15 20:02:33;;;;;;;15.43;10.30;;;13.30;91.00;;;;;;10438475;28;20272;-90
2021/12/15 20:07:36;;;;;;;14.60;9.73;;;13.40;90.80;;;;;;10412130;28;20508;-91
2021/12/15 20:12:39;;;;;;;21.23;13.47;;;13.40;90.70;;;;;;10426732;28;20996;-91
2021/12/15 20:17:41;;;;;;;14.67;10.07;;;13.40;90.90;;;;;;10442674;28;20259;-91
2021/12/15 20:22:44;;;;;;;15.33;9.63;;;13.30;90.70;;;;;;10409718;28;20221;-91
2021/12/15 20:27:49;;;;;;;17.33;10.73;;;13.40;90.70;;;;;;10414962;28;20638;-91
2021/12/15 20:32:52;;;;;;;12.87;8.97;;;13.30;90.80;;;;;;10422859;28;20258;-91
2021/12/15 20:37:54;;;;;;;16.17;9.93;;;13.30;90.60;;;;;;10411832;28;20248;-91
2021/12/15 20:42:58;;;;;;;15.53;9.77;;;13.30;90.70;;;;;;10444637;28;20698;-91
2021/12/15 20:48:01;;;;;;;12.17;8.33;;;13.40;90.40;;;;;;10435443;28;20229;-92
2021/12/15 20:53:05;;;;;;;15.67;10.03;;;13.50;90.30;;;;;;10433738;28;20222;-91
2021/12/15 20:58:08;;;;;;;14.50;9.00;;;13.50;90.20;;;;;;10431024;28;20626;-89
2021/12/15 21:03:10;;;;;;;16.60;10.77;;;13.50;90.10;;;;;;10408397;28;20232;-91
2021/12/15 21:08:13;;;;;;;13.17;9.63;;;13.50;90.00;;;;;;10430818;28;20292;-91
2021/12/15 21:13:16;;;;;;;13.97;9.30;;;13.50;89.90;;;;;;10405276;28;20346;-88
2021/12/15 21:18:18;;;;;;;13.20;9.00;;;13.40;90.10;;;;;;10422260;28;20245;-91
2021/12/15 21:23:21;;;;;;;13.30;9.67;;;13.40;90.10;;;;;;10462078;28;20258;-92
2021/12/15 21:28:29;;;;;;;11.20;8.43;;;13.40;90.10;;;;;;10466879;28;20713;-92
2021/12/15 21:33:36;;;;;;;13.90;10.20;;;13.40;90.20;;;;;;10435607;28;20202;-90
2021/12/15 21:38:40;;;;;;;13.97;8.77;;;13.40;90.00;;;;;;10437530;28;20260;-92
2021/12/15 21:43:43;;;;;;;12.13;9.20;;;13.40;90.00;;;;;;10414711;28;20201;-92
2021/12/15 21:48:45;;;;;;;15.37;9.53;;;13.50;90.00;;;;;;10444489;28;20240;-93
2021/12/15 21:53:49;;;;;;;13.13;10.77;;;13.40;89.90;;;;;;10426138;28;20240;-91
2021/12/15 21:58:53;;;;;;;14.17;9.57;;;13.40;90.00;;;;;;10410050;28;20246;-91
2021/12/15 22:03:57;;;;;;;11.03;7.63;;;13.30;90.10;;;;;;10452032;28;20637;-91
2021/12/15 22:09:01;;;;;;;14.07;9.43;;;13.30;90.10;;;;;;10489038;28;20251;-91
2021/12/15 22:14:05;;;;;;;13.77;9.97;;;13.30;90.00;;;;;;10471951;28;20231;-90
2021/12/15 22:19:16;;;;;;;13.50;9.43;;;13.30;90.00;;;;;;10465840;28;20233;-90
2021/12/15 22:24:25;;;;;;;13.97;8.87;;;13.30;90.00;;;;;;10421933;28;20340;-91
2021/12/15 22:29:32;;;;;;;15.27;10.47;;;13.30;90.00;;;;;;10442930;28;20321;-91
2021/12/15 22:34:40;;;;;;;11.50;8.43;;;13.30;90.50;;;;;;10414278;28;20240;-91
2021/12/15 22:39:43;;;;;;;13.73;8.57;;;13.40;90.00;;;;;;10433271;28;20266;-91
2021/12/15 22:44:45;;;;;;;13.70;8.87;;;13.50;89.50;;;;;;10419000;28;20680;-91
2021/12/15 22:49:48;;;;;;;13.67;8.83;;;13.50;89.30;;;;;;10453877;28;20238;-91
2021/12/15 22:54:50;;;;;;;12.90;8.97;;;13.50;89.20;;;;;;10400116;28;20289;-91
2021/12/15 22:59:53;;;;;;;11.03;7.80;;;13.60;89.00;;;;;;10421896;28;20634;-90
2021/12/15 23:04:57;;;;;;;13.53;9.30;;;13.40;89.30;;;;;;10428892;28;20294;-91
2021/12/15 23:09:59;;;;;;;10.50;8.57;;;13.40;89.70;;;;;;10434393;28;20259;-90
2021/12/15 23:15:13;;;;;;;11.73;8.60;;;13.60;90.00;;;;;;10454236;28;20232;-89
2021/12/15 23:20:18;;;;;;;10.53;8.00;;;13.60;89.20;;;;;;10438013;28;20244;-89
2021/12/15 23:25:22;;;;;;;13.10;8.97;;;13.60;89.30;;;;;;10436420;28;20223;-89
2021/12/15 23:30:26;;;;;;;13.47;9.23;;;13.50;89.30;;;;;;10413422;28;20237;-89
2021/12/15 23:35:44;;;;;;;11.53;8.67;;;13.50;89.40;;;;;;10436613;28;20248;-89
